sensor_id;sensor_type;location;lat;lon;timestamp;P1;durP1;ratioP1;P2;durP2;ratioP2
12425;SDS011;6277;49.824;9.562;2022-07-29T00:00:56;2.40;;;1.50;;
12425;SDS011;6277;49.824;9.562;2022-07-29T00:03:22;3.33;;;1.45;;
12425;SDS011;6277;49.824;9.562;2022-07-29T00:05:47;2.35;;;1.50;;
12425;SDS011;6277;49.824;9.562;2022-07-29T00:08:13;3.38;;;1.50;;
12425;SDS011;6277;49.824;9.562;2022-07-29T00:10:40;3.50;;;1.35;;
12425;SDS011;6277;49.824;9.562;2022-07-29T00:13:06;2.28;;;1.10;;
12425;SDS011;6277;49.824;9.562;2022-07-29T00:15:32;2.33;;;1.30;;
12425;SDS011;6277;49.824;9.562;2022-07-29T00:17:58;4.63;;;1.33;;
12425;SDS011;6277;49.824;9.562;2022-07-29T00:20:23;3.83;;;1.38;;
12425;SDS011;6277;49.824;9.562;2022-07-29T00:22:49;2.20;;;1.40;;
12425;SDS011;6277;49.824;9.562;2022-07-29T00:25:14;2.50;;;1.20;;
12425;SDS011;6277;49.824;9.562;2022-07-29T00:27:40;2.72;;;1.33;;
12425;SDS011;6277;49.824;9.562;2022-07-29T00:30:06;2.90;;;1.48;;
12425;SDS011;6277;49.824;9.562;2022-07-29T00:32:32;3.67;;;1.50;;
12425;SDS011;6277;49.824;9.562;2022-07-29T00:34:58;2.65;;;1.33;;
12425;SDS011;6277;49.824;9.562;2022-07-29T00:37:44;3.10;;;1.38;;
12425;SDS011;6277;49.824;9.562;2022-07-29T00:40:09;3.28;;;1.08;;
12425;SDS011;6277;49.824;9.562;2022-07-29T00:42:44;2.80;;;1.40;;
12425;SDS011;6277;49.824;9.562;2022-07-29T00:45:11;3.20;;;1.25;;
12425;SDS011;6277;49.824;9.562;2022-07-29T00:47:37;2.42;;;1.25;;
12425;SDS011;6277;49.824;9.562;2022-07-29T00:50:04;2.00;;;1.25;;
12425;SDS011;6277;49.824;9.562;2022-07-29T00:52:31;2.05;;;1.10;;
12425;SDS011;6277;49.824;9.562;2022-07-29T00:54:58;2.60;;;1.45;;
12425;SDS011;6277;49.824;9.562;2022-07-29T00:57:23;3.95;;;1.63;;
12425;SDS011;6277;49.824;9.562;2022-07-29T00:59:49;3.20;;;1.38;;
12425;SDS011;6277;49.824;9.562;2022-07-29T01:02:14;3.13;;;1.40;;
12425;SDS011;6277;49.824;9.562;2022-07-29T01:04:40;2.13;;;1.33;;
12425;SDS011;6277;49.824;9.562;2022-07-29T01:07:06;1.92;;;1.17;;
12425;SDS011;6277;49.824;9.562;2022-07-29T01:09:32;2.88;;;1.30;;
12425;SDS011;6277;49.824;9.562;2022-07-29T01:12:00;2.78;;;1.17;;
12425;SDS011;6277;49.824;9.562;2022-07-29T01:14:26;2.53;;;1.38;;
12425;SDS011;6277;49.824;9.562;2022-07-29T01:17:36;2.53;;;1.40;;
12425;SDS011;6277;49.824;9.562;2022-07-29T01:22:37;2.15;;;1.27;;
12425;SDS011;6277;49.824;9.562;2022-07-29T01:28:17;2.05;;;1.25;;
12425;SDS011;6277;49.824;9.562;2022-07-29T01:31:00;2.47;;;1.50;;
12425;SDS011;6277;49.824;9.562;2022-07-29T01:33:29;3.08;;;1.60;;
12425;SDS011;6277;49.824;9.562;2022-07-29T01:36:17;2.50;;;1.55;;
12425;SDS011;6277;49.824;9.562;2022-07-29T01:39:06;2.75;;;1.40;;
12425;SDS011;6277;49.824;9.562;2022-07-29T01:41:56;1.95;;;1.25;;
12425;SDS011;6277;49.824;9.562;2022-07-29T01:44:34;2.13;;;1.20;;
12425;SDS011;6277;49.824;9.562;2022-07-29T01:47:05;4.70;;;1.38;;
12425;SDS011;6277;49.824;9.562;2022-07-29T01:49:40;3.30;;;1.75;;
12425;SDS011;6277;49.824;9.562;2022-07-29T01:52:13;2.92;;;1.25;;
12425;SDS011;6277;49.824;9.562;2022-07-29T01:54:49;1.77;;;1.15;;
12425;SDS011;6277;49.824;9.562;2022-07-29T01:57:29;2.50;;;1.30;;
12425;SDS011;6277;49.824;9.562;2022-07-29T01:59:58;2.42;;;1.35;;
12425;SDS011;6277;49.824;9.562;2022-07-29T02:02:26;3.30;;;1.48;;
12425;SDS011;6277;49.824;9.562;2022-07-29T02:04:54;2.35;;;1.27;;
12425;SDS011;6277;49.824;9.562;2022-07-29T02:07:22;3.17;;;1.60;;
12425;SDS011;6277;49.824;9.562;2022-07-29T02:09:50;4.22;;;1.85;;
12425;SDS011;6277;49.824;9.562;2022-07-29T02:12:17;2.90;;;1.40;;
12425;SDS011;6277;49.824;9.562;2022-07-29T02:14:44;4.07;;;1.60;;
12425;SDS011;6277;49.824;9.562;2022-07-29T02:17:13;2.25;;;1.40;;
12425;SDS011;6277;49.824;9.562;2022-07-29T02:19:43;2.95;;;1.27;;
12425;SDS011;6277;49.824;9.562;2022-07-29T02:22:10;2.90;;;1.48;;
12425;SDS011;6277;49.824;9.562;2022-07-29T02:24:37;2.28;;;1.10;;
12425;SDS011;6277;49.824;9.562;2022-07-29T02:27:05;1.95;;;1.20;;
12425;SDS011;6277;49.824;9.562;2022-07-29T02:29:32;2.38;;;1.45;;
12425;SDS011;6277;49.824;9.562;2022-07-29T02:32:01;2.33;;;1.20;;
12425;SDS011;6277;49.824;9.562;2022-07-29T02:34:29;2.92;;;1.45;;
12425;SDS011;6277;49.824;9.562;2022-07-29T02:36:55;3.63;;;1.25;;
12425;SDS011;6277;49.824;9.562;2022-07-29T02:39:21;1.75;;;1.10;;
12425;SDS011;6277;49.824;9.562;2022-07-29T02:41:54;3.72;;;1.35;;
12425;SDS011;6277;49.824;9.562;2022-07-29T02:44:26;2.35;;;1.40;;
12425;SDS011;6277;49.824;9.562;2022-07-29T02:52:03;2.13;;;1.15;;
12425;SDS011;6277;49.824;9.562;2022-07-29T02:54:37;4.97;;;1.27;;
12425;SDS011;6277;49.824;9.562;2022-07-29T02:57:20;2.33;;;1.20;;
12425;SDS011;6277;49.824;9.562;2022-07-29T02:59:52;2.33;;;1.33;;
12425;SDS011;6277;49.824;9.562;2022-07-29T03:02:22;2.65;;;1.40;;
12425;SDS011;6277;49.824;9.562;2022-07-29T03:04:49;1.80;;;1.20;;
12425;SDS011;6277;49.824;9.562;2022-07-29T03:07:17;2.38;;;1.50;;
12425;SDS011;6277;49.824;9.562;2022-07-29T03:09:44;3.78;;;2.33;;
12425;SDS011;6277;49.824;9.562;2022-07-29T03:12:10;2.42;;;2.03;;
12425;SDS011;6277;49.824;9.562;2022-07-29T03:14:37;2.47;;;1.80;;
12425;SDS011;6277;49.824;9.562;2022-07-29T03:17:03;3.08;;;1.65;;
12425;SDS011;6277;49.824;9.562;2022-07-29T03:19:30;2.15;;;1.50;;
12425;SDS011;6277;49.824;9.562;2022-07-29T03:21:57;3.70;;;1.50;;
12425;SDS011;6277;49.824;9.562;2022-07-29T03:24:24;2.20;;;1.23;;
12425;SDS011;6277;49.824;9.562;2022-07-29T03:26:54;1.75;;;1.10;;
12425;SDS011;6277;49.824;9.562;2022-07-29T03:29:21;2.70;;;1.25;;
12425;SDS011;6277;49.824;9.562;2022-07-29T03:31:47;2.92;;;1.50;;
12425;SDS011;6277;49.824;9.562;2022-07-29T03:34:13;2.17;;;1.17;;
12425;SDS011;6277;49.824;9.562;2022-07-29T03:36:38;2.85;;;1.90;;
12425;SDS011;6277;49.824;9.562;2022-07-29T03:39:04;4.60;;;1.60;;
12425;SDS011;6277;49.824;9.562;2022-07-29T03:41:31;4.32;;;2.75;;
12425;SDS011;6277;49.824;9.562;2022-07-29T03:43:58;7.47;;;3.53;;
12425;SDS011;6277;49.824;9.562;2022-07-29T03:46:25;4.70;;;2.95;;
12425;SDS011;6277;49.824;9.562;2022-07-29T03:48:55;6.07;;;3.05;;
12425;SDS011;6277;49.824;9.562;2022-07-29T03:51:24;4.97;;;2.20;;
12425;SDS011;6277;49.824;9.562;2022-07-29T03:53:51;4.35;;;2.75;;
12425;SDS011;6277;49.824;9.562;2022-07-29T03:56:17;4.25;;;3.00;;
12425;SDS011;6277;49.824;9.562;2022-07-29T03:58:46;4.25;;;2.50;;
12425;SDS011;6277;49.824;9.562;2022-07-29T04:01:13;4.68;;;1.80;;
12425;SDS011;6277;49.824;9.562;2022-07-29T04:03:42;2.63;;;1.45;;
12425;SDS011;6277;49.824;9.562;2022-07-29T04:06:10;3.80;;;2.13;;
12425;SDS011;6277;49.824;9.562;2022-07-29T04:08:36;3.22;;;1.27;;
12425;SDS011;6277;49.824;9.562;2022-07-29T04:11:02;1.45;;;1.05;;
12425;SDS011;6277;49.824;9.562;2022-07-29T04:13:28;5.50;;;1.30;;
12425;SDS011;6277;49.824;9.562;2022-07-29T04:15:54;2.40;;;1.05;;
12425;SDS011;6277;49.824;9.562;2022-07-29T04:18:19;2.03;;;1.13;;
12425;SDS011;6277;49.824;9.562;2022-07-29T04:20:45;3.35;;;1.40;;
12425;SDS011;6277;49.824;9.562;2022-07-29T04:23:10;2.60;;;1.05;;
12425;SDS011;6277;49.824;9.562;2022-07-29T04:25:36;2.92;;;1.30;;
12425;SDS011;6277;49.824;9.562;2022-07-29T04:28:03;3.83;;;1.50;;
12425;SDS011;6277;49.824;9.562;2022-07-29T04:30:29;1.67;;;1.10;;
12425;SDS011;6277;49.824;9.562;2022-07-29T04:32:56;8.88;;;1.33;;
12425;SDS011;6277;49.824;9.562;2022-07-29T04:35:22;3.20;;;1.27;;
12425;SDS011;6277;49.824;9.562;2022-07-29T04:37:48;1.90;;;1.17;;
12425;SDS011;6277;49.824;9.562;2022-07-29T04:40:13;2.28;;;1.00;;
12425;SDS011;6277;49.824;9.562;2022-07-29T04:42:39;3.10;;;0.80;;
12425;SDS011;6277;49.824;9.562;2022-07-29T04:45:05;2.75;;;1.10;;
12425;SDS011;6277;49.824;9.562;2022-07-29T04:47:31;3.47;;;1.35;;
12425;SDS011;6277;49.824;9.562;2022-07-29T04:49:56;3.20;;;1.13;;
12425;SDS011;6277;49.824;9.562;2022-07-29T04:52:22;3.17;;;1.05;;
12425;SDS011;6277;49.824;9.562;2022-07-29T04:54:48;3.17;;;1.05;;
12425;SDS011;6277;49.824;9.562;2022-07-29T04:57:13;3.30;;;1.20;;
12425;SDS011;6277;49.824;9.562;2022-07-29T04:59:39;2.20;;;1.10;;
12425;SDS011;6277;49.824;9.562;2022-07-29T05:02:05;2.00;;;0.93;;
12425;SDS011;6277;49.824;9.562;2022-07-29T05:04:30;3.35;;;1.10;;
12425;SDS011;6277;49.824;9.562;2022-07-29T05:06:56;1.83;;;0.90;;
12425;SDS011;6277;49.824;9.562;2022-07-29T05:09:21;2.70;;;1.05;;
12425;SDS011;6277;49.824;9.562;2022-07-29T05:11:47;1.88;;;0.98;;
12425;SDS011;6277;49.824;9.562;2022-07-29T05:14:12;4.85;;;1.20;;
12425;SDS011;6277;49.824;9.562;2022-07-29T05:16:38;3.00;;;0.95;;
12425;SDS011;6277;49.824;9.562;2022-07-29T05:19:06;2.42;;;0.82;;
12425;SDS011;6277;49.824;9.562;2022-07-29T05:21:32;3.25;;;1.00;;
12425;SDS011;6277;49.824;9.562;2022-07-29T05:23:58;2.03;;;1.10;;
12425;SDS011;6277;49.824;9.562;2022-07-29T05:26:23;5.05;;;1.10;;
12425;SDS011;6277;49.824;9.562;2022-07-29T05:28:49;4.43;;;1.48;;
12425;SDS011;6277;49.824;9.562;2022-07-29T05:31:14;4.95;;;1.35;;
12425;SDS011;6277;49.824;9.562;2022-07-29T05:33:40;1.70;;;1.00;;
12425;SDS011;6277;49.824;9.562;2022-07-29T05:36:06;1.92;;;0.95;;
12425;SDS011;6277;49.824;9.562;2022-07-29T05:38:32;3.60;;;1.00;;
12425;SDS011;6277;49.824;9.562;2022-07-29T05:40:59;2.22;;;1.27;;
12425;SDS011;6277;49.824;9.562;2022-07-29T05:43:25;2.00;;;1.00;;
12425;SDS011;6277;49.824;9.562;2022-07-29T05:45:53;2.75;;;0.90;;
12425;SDS011;6277;49.824;9.562;2022-07-29T05:48:19;3.10;;;1.20;;
12425;SDS011;6277;49.824;9.562;2022-07-29T05:50:44;1.83;;;0.90;;
12425;SDS011;6277;49.824;9.562;2022-07-29T05:53:10;2.03;;;0.95;;
12425;SDS011;6277;49.824;9.562;2022-07-29T05:55:35;1.63;;;0.88;;
12425;SDS011;6277;49.824;9.562;2022-07-29T05:58:01;1.10;;;0.93;;
12425;SDS011;6277;49.824;9.562;2022-07-29T06:00:27;1.83;;;1.15;;
12425;SDS011;6277;49.824;9.562;2022-07-29T06:02:53;3.05;;;1.13;;
12425;SDS011;6277;49.824;9.562;2022-07-29T06:05:18;2.05;;;0.90;;
12425;SDS011;6277;49.824;9.562;2022-07-29T06:07:44;1.05;;;0.80;;
12425;SDS011;6277;49.824;9.562;2022-07-29T06:10:09;2.53;;;0.75;;
12425;SDS011;6277;49.824;9.562;2022-07-29T06:12:35;1.58;;;0.90;;
12425;SDS011;6277;49.824;9.562;2022-07-29T06:15:01;2.42;;;1.00;;
12425;SDS011;6277;49.824;9.562;2022-07-29T06:17:26;3.20;;;0.80;;
12425;SDS011;6277;49.824;9.562;2022-07-29T06:19:52;1.88;;;0.90;;
12425;SDS011;6277;49.824;9.562;2022-07-29T06:22:17;2.47;;;0.90;;
12425;SDS011;6277;49.824;9.562;2022-07-29T06:24:43;2.47;;;1.17;;
12425;SDS011;6277;49.824;9.562;2022-07-29T06:27:12;3.20;;;1.00;;
12425;SDS011;6277;49.824;9.562;2022-07-29T06:29:37;2.25;;;1.25;;
12425;SDS011;6277;49.824;9.562;2022-07-29T06:32:03;2.50;;;0.80;;
12425;SDS011;6277;49.824;9.562;2022-07-29T06:34:29;3.15;;;1.23;;
12425;SDS011;6277;49.824;9.562;2022-07-29T06:36:55;2.15;;;1.38;;
12425;SDS011;6277;49.824;9.562;2022-07-29T06:39:20;2.55;;;0.90;;
12425;SDS011;6277;49.824;9.562;2022-07-29T06:41:47;2.35;;;1.00;;
12425;SDS011;6277;49.824;9.562;2022-07-29T06:44:14;3.17;;;1.15;;
12425;SDS011;6277;49.824;9.562;2022-07-29T06:46:39;2.03;;;1.02;;
12425;SDS011;6277;49.824;9.562;2022-07-29T06:49:05;2.40;;;1.10;;
12425;SDS011;6277;49.824;9.562;2022-07-29T06:51:30;4.40;;;1.20;;
12425;SDS011;6277;49.824;9.562;2022-07-29T06:53:56;3.85;;;0.90;;
12425;SDS011;6277;49.824;9.562;2022-07-29T06:56:22;1.25;;;0.90;;
12425;SDS011;6277;49.824;9.562;2022-07-29T06:58:48;1.95;;;1.00;;
12425;SDS011;6277;49.824;9.562;2022-07-29T07:01:13;2.45;;;1.20;;
12425;SDS011;6277;49.824;9.562;2022-07-29T07:03:39;4.38;;;1.10;;
12425;SDS011;6277;49.824;9.562;2022-07-29T07:06:04;2.08;;;1.20;;
12425;SDS011;6277;49.824;9.562;2022-07-29T07:08:30;1.98;;;0.90;;
12425;SDS011;6277;49.824;9.562;2022-07-29T07:10:55;5.18;;;1.23;;
12425;SDS011;6277;49.824;9.562;2022-07-29T07:13:21;2.78;;;1.02;;
12425;SDS011;6277;49.824;9.562;2022-07-29T07:15:47;3.78;;;0.90;;
12425;SDS011;6277;49.824;9.562;2022-07-29T07:18:14;3.97;;;1.30;;
12425;SDS011;6277;49.824;9.562;2022-07-29T07:20:40;3.28;;;1.40;;
12425;SDS011;6277;49.824;9.562;2022-07-29T07:23:06;5.20;;;2.67;;
12425;SDS011;6277;49.824;9.562;2022-07-29T07:25:32;7.05;;;3.85;;
12425;SDS011;6277;49.824;9.562;2022-07-29T07:27:58;5.70;;;3.45;;
12425;SDS011;6277;49.824;9.562;2022-07-29T07:30:23;2.63;;;1.80;;
12425;SDS011;6277;49.824;9.562;2022-07-29T07:32:49;2.95;;;1.67;;
12425;SDS011;6277;49.824;9.562;2022-07-29T07:35:15;1.73;;;1.13;;
12425;SDS011;6277;49.824;9.562;2022-07-29T07:37:40;1.77;;;1.05;;
12425;SDS011;6277;49.824;9.562;2022-07-29T07:40:06;2.63;;;1.10;;
12425;SDS011;6277;49.824;9.562;2022-07-29T07:42:34;3.55;;;1.20;;
12425;SDS011;6277;49.824;9.562;2022-07-29T07:44:59;1.40;;;0.98;;
12425;SDS011;6277;49.824;9.562;2022-07-29T07:47:25;2.08;;;0.90;;
12425;SDS011;6277;49.824;9.562;2022-07-29T07:49:51;3.95;;;1.20;;
12425;SDS011;6277;49.824;9.562;2022-07-29T07:52:18;3.65;;;1.10;;
12425;SDS011;6277;49.824;9.562;2022-07-29T07:54:45;3.20;;;1.50;;
12425;SDS011;6277;49.824;9.562;2022-07-29T07:57:11;2.88;;;1.00;;
12425;SDS011;6277;49.824;9.562;2022-07-29T07:59:37;1.77;;;1.05;;
12425;SDS011;6277;49.824;9.562;2022-07-29T08:02:03;3.22;;;1.13;;
12425;SDS011;6277;49.824;9.562;2022-07-29T08:04:29;1.83;;;0.98;;
12425;SDS011;6277;49.824;9.562;2022-07-29T08:06:55;2.25;;;1.10;;
12425;SDS011;6277;49.824;9.562;2022-07-29T08:09:21;2.78;;;1.20;;
12425;SDS011;6277;49.824;9.562;2022-07-29T08:11:47;2.53;;;1.05;;
12425;SDS011;6277;49.824;9.562;2022-07-29T08:14:13;2.30;;;1.58;;
12425;SDS011;6277;49.824;9.562;2022-07-29T08:16:39;2.70;;;1.13;;
12425;SDS011;6277;49.824;9.562;2022-07-29T08:19:05;2.22;;;1.10;;
12425;SDS011;6277;49.824;9.562;2022-07-29T08:21:31;1.52;;;1.08;;
12425;SDS011;6277;49.824;9.562;2022-07-29T08:23:57;6.93;;;1.40;;
12425;SDS011;6277;49.824;9.562;2022-07-29T08:26:41;3.50;;;1.02;;
12425;SDS011;6277;49.824;9.562;2022-07-29T08:29:07;2.38;;;1.17;;
12425;SDS011;6277;49.824;9.562;2022-07-29T08:31:34;2.25;;;1.20;;
12425;SDS011;6277;49.824;9.562;2022-07-29T08:34:00;3.00;;;1.20;;
12425;SDS011;6277;49.824;9.562;2022-07-29T08:36:27;1.90;;;1.10;;
12425;SDS011;6277;49.824;9.562;2022-07-29T08:38:52;2.08;;;1.20;;
12425;SDS011;6277;49.824;9.562;2022-07-29T08:41:18;2.75;;;1.10;;
12425;SDS011;6277;49.824;9.562;2022-07-29T08:43:44;1.77;;;1.15;;
12425;SDS011;6277;49.824;9.562;2022-07-29T08:46:10;1.92;;;1.13;;
12425;SDS011;6277;49.824;9.562;2022-07-29T08:48:36;1.30;;;1.00;;
12425;SDS011;6277;49.824;9.562;2022-07-29T08:51:03;2.00;;;1.17;;
12425;SDS011;6277;49.824;9.562;2022-07-29T08:53:31;1.63;;;1.00;;
12425;SDS011;6277;49.824;9.562;2022-07-29T08:55:57;2.22;;;0.90;;
12425;SDS011;6277;49.824;9.562;2022-07-29T08:58:23;2.20;;;1.33;;
12425;SDS011;6277;49.824;9.562;2022-07-29T09:00:53;1.48;;;1.05;;
12425;SDS011;6277;49.824;9.562;2022-07-29T09:03:20;3.00;;;0.95;;
12425;SDS011;6277;49.824;9.562;2022-07-29T09:05:49;2.22;;;1.25;;
12425;SDS011;6277;49.824;9.562;2022-07-29T09:08:16;3.05;;;1.13;;
12425;SDS011;6277;49.824;9.562;2022-07-29T09:10:42;2.00;;;1.00;;
12425;SDS011;6277;49.824;9.562;2022-07-29T09:13:08;2.78;;;1.10;;
12425;SDS011;6277;49.824;9.562;2022-07-29T09:15:34;1.25;;;1.00;;
12425;SDS011;6277;49.824;9.562;2022-07-29T09:18:00;1.83;;;1.20;;
12425;SDS011;6277;49.824;9.562;2022-07-29T09:20:27;5.07;;;1.10;;
12425;SDS011;6277;49.824;9.562;2022-07-29T09:23:13;1.90;;;1.20;;
12425;SDS011;6277;49.824;9.562;2022-07-29T09:25:39;4.63;;;1.20;;
12425;SDS011;6277;49.824;9.562;2022-07-29T09:28:15;3.35;;;1.20;;
12425;SDS011;6277;49.824;9.562;2022-07-29T09:30:51;1.67;;;1.17;;
12425;SDS011;6277;49.824;9.562;2022-07-29T09:33:20;1.98;;;1.05;;
12425;SDS011;6277;49.824;9.562;2022-07-29T09:35:58;1.20;;;0.93;;
12425;SDS011;6277;49.824;9.562;2022-07-29T09:38:25;3.85;;;1.10;;
12425;SDS011;6277;49.824;9.562;2022-07-29T09:40:57;2.20;;;1.20;;
12425;SDS011;6277;49.824;9.562;2022-07-29T09:43:23;1.30;;;1.20;;
12425;SDS011;6277;49.824;9.562;2022-07-29T09:45:49;3.05;;;1.25;;
12425;SDS011;6277;49.824;9.562;2022-07-29T09:50:42;2.28;;;0.93;;
12425;SDS011;6277;49.824;9.562;2022-07-29T09:53:10;1.92;;;0.93;;
12425;SDS011;6277;49.824;9.562;2022-07-29T09:55:45;1.70;;;0.90;;
12425;SDS011;6277;49.824;9.562;2022-07-29T09:58:19;1.17;;;1.00;;
12425;SDS011;6277;49.824;9.562;2022-07-29T10:00:47;1.33;;;0.90;;
12425;SDS011;6277;49.824;9.562;2022-07-29T10:03:14;1.70;;;1.17;;
12425;SDS011;6277;49.824;9.562;2022-07-29T10:05:41;2.22;;;1.05;;
12425;SDS011;6277;49.824;9.562;2022-07-29T10:08:07;2.03;;;0.80;;
12425;SDS011;6277;49.824;9.562;2022-07-29T10:10:35;2.13;;;0.80;;
12425;SDS011;6277;49.824;9.562;2022-07-29T10:15:29;1.90;;;0.88;;
12425;SDS011;6277;49.824;9.562;2022-07-29T10:17:57;1.27;;;1.05;;
12425;SDS011;6277;49.824;9.562;2022-07-29T10:20:24;3.15;;;1.00;;
12425;SDS011;6277;49.824;9.562;2022-07-29T10:22:51;0.95;;;0.80;;
12425;SDS011;6277;49.824;9.562;2022-07-29T10:25:17;2.40;;;0.90;;
12425;SDS011;6277;49.824;9.562;2022-07-29T10:27:47;1.33;;;0.85;;
12425;SDS011;6277;49.824;9.562;2022-07-29T10:30:13;2.42;;;1.00;;
12425;SDS011;6277;49.824;9.562;2022-07-29T10:36:07;1.38;;;0.95;;
12425;SDS011;6277;49.824;9.562;2022-07-29T10:41:53;1.77;;;1.05;;
12425;SDS011;6277;49.824;9.562;2022-07-29T10:44:22;2.20;;;0.80;;
12425;SDS011;6277;49.824;9.562;2022-07-29T10:46:50;1.30;;;0.93;;
12425;SDS011;6277;49.824;9.562;2022-07-29T10:49:17;1.98;;;1.08;;
12425;SDS011;6277;49.824;9.562;2022-07-29T10:54:19;2.22;;;0.85;;
12425;SDS011;6277;49.824;9.562;2022-07-29T10:57:14;3.85;;;0.95;;
12425;SDS011;6277;49.824;9.562;2022-07-29T10:59:46;2.85;;;1.15;;
12425;SDS011;6277;49.824;9.562;2022-07-29T11:07:24;2.67;;;1.35;;
12425;SDS011;6277;49.824;9.562;2022-07-29T11:15:10;5.10;;;1.20;;
12425;SDS011;6277;49.824;9.562;2022-07-29T11:20:31;2.20;;;1.00;;
12425;SDS011;6277;49.824;9.562;2022-07-29T11:23:20;2.75;;;1.20;;
12425;SDS011;6277;49.824;9.562;2022-07-29T11:31:40;6.00;;;1.17;;
12425;SDS011;6277;49.824;9.562;2022-07-29T11:40:19;1.70;;;1.10;;
12425;SDS011;6277;49.824;9.562;2022-07-29T11:44:58;0.98;;;0.80;;
12425;SDS011;6277;49.824;9.562;2022-07-29T11:47:40;8.63;;;5.25;;
12425;SDS011;6277;49.824;9.562;2022-07-29T11:50:12;3.45;;;2.20;;
12425;SDS011;6277;49.824;9.562;2022-07-29T11:52:43;2.28;;;1.60;;
12425;SDS011;6277;49.824;9.562;2022-07-29T11:55:15;5.10;;;1.63;;
12425;SDS011;6277;49.824;9.562;2022-07-29T11:57:46;1.08;;;0.98;;
12425;SDS011;6277;49.824;9.562;2022-07-29T12:00:20;3.15;;;1.20;;
12425;SDS011;6277;49.824;9.562;2022-07-29T12:02:48;1.25;;;1.05;;
12425;SDS011;6277;49.824;9.562;2022-07-29T12:05:13;2.75;;;1.10;;
12425;SDS011;6277;49.824;9.562;2022-07-29T12:07:40;1.20;;;0.98;;
12425;SDS011;6277;49.824;9.562;2022-07-29T12:10:06;1.20;;;0.80;;
12425;SDS011;6277;49.824;9.562;2022-07-29T12:12:33;1.27;;;0.95;;
12425;SDS011;6277;49.824;9.562;2022-07-29T12:15:10;3.08;;;1.10;;
12425;SDS011;6277;49.824;9.562;2022-07-29T12:17:45;1.75;;;1.13;;
12425;SDS011;6277;49.824;9.562;2022-07-29T12:20:11;1.65;;;0.98;;
12425;SDS011;6277;49.824;9.562;2022-07-29T12:22:38;3.35;;;1.10;;
12425;SDS011;6277;49.824;9.562;2022-07-29T12:25:09;2.33;;;1.10;;
12425;SDS011;6277;49.824;9.562;2022-07-29T12:27:37;1.35;;;1.10;;
12425;SDS011;6277;49.824;9.562;2022-07-29T12:30:10;1.38;;;1.00;;
12425;SDS011;6277;49.824;9.562;2022-07-29T12:32:47;2.17;;;0.80;;
12425;SDS011;6277;49.824;9.562;2022-07-29T12:35:16;2.50;;;1.00;;
12425;SDS011;6277;49.824;9.562;2022-07-29T12:37:44;3.35;;;1.13;;
12425;SDS011;6277;49.824;9.562;2022-07-29T12:40:13;1.20;;;0.90;;
12425;SDS011;6277;49.824;9.562;2022-07-29T12:42:41;2.17;;;0.90;;
12425;SDS011;6277;49.824;9.562;2022-07-29T12:45:30;1.23;;;0.73;;
12425;SDS011;6277;49.824;9.562;2022-07-29T12:47:56;1.58;;;0.85;;
12425;SDS011;6277;49.824;9.562;2022-07-29T12:50:22;3.28;;;0.85;;
12425;SDS011;6277;49.824;9.562;2022-07-29T12:52:47;1.85;;;0.75;;
12425;SDS011;6277;49.824;9.562;2022-07-29T12:55:13;1.75;;;1.00;;
12425;SDS011;6277;49.824;9.562;2022-07-29T12:57:49;2.40;;;1.13;;
12425;SDS011;6277;49.824;9.562;2022-07-29T13:00:21;1.40;;;0.85;;
12425;SDS011;6277;49.824;9.562;2022-07-29T13:02:54;0.65;;;0.63;;
12425;SDS011;6277;49.824;9.562;2022-07-29T13:05:23;2.80;;;1.05;;
12425;SDS011;6277;49.824;9.562;2022-07-29T13:08:10;2.50;;;0.85;;
12425;SDS011;6277;49.824;9.562;2022-07-29T13:10:36;1.23;;;0.80;;
12425;SDS011;6277;49.824;9.562;2022-07-29T13:13:08;2.33;;;0.88;;
12425;SDS011;6277;49.824;9.562;2022-07-29T13:15:42;1.42;;;0.95;;
12425;SDS011;6277;49.824;9.562;2022-07-29T13:18:31;3.50;;;1.55;;
12425;SDS011;6277;49.824;9.562;2022-07-29T13:21:09;1.73;;;1.00;;
12425;SDS011;6277;49.824;9.562;2022-07-29T13:23:40;2.05;;;1.20;;
12425;SDS011;6277;49.824;9.562;2022-07-29T13:26:06;1.20;;;1.00;;
12425;SDS011;6277;49.824;9.562;2022-07-29T13:28:33;1.60;;;1.00;;
12425;SDS011;6277;49.824;9.562;2022-07-29T13:30:59;1.30;;;1.10;;
12425;SDS011;6277;49.824;9.562;2022-07-29T13:33:25;1.65;;;1.10;;
12425;SDS011;6277;49.824;9.562;2022-07-29T13:35:50;1.02;;;0.90;;
12425;SDS011;6277;49.824;9.562;2022-07-29T13:38:16;3.67;;;1.00;;
12425;SDS011;6277;49.824;9.562;2022-07-29T13:40:42;2.95;;;1.20;;
12425;SDS011;6277;49.824;9.562;2022-07-29T13:43:08;1.10;;;0.95;;
12425;SDS011;6277;49.824;9.562;2022-07-29T13:45:35;1.40;;;0.93;;
12425;SDS011;6277;49.824;9.562;2022-07-29T13:48:00;1.60;;;1.17;;
12425;SDS011;6277;49.824;9.562;2022-07-29T13:50:26;1.25;;;1.00;;
12425;SDS011;6277;49.824;9.562;2022-07-29T13:52:51;0.85;;;0.75;;
12425;SDS011;6277;49.824;9.562;2022-07-29T13:55:17;1.65;;;1.20;;
12425;SDS011;6277;49.824;9.562;2022-07-29T13:57:43;3.63;;;0.95;;
12425;SDS011;6277;49.824;9.562;2022-07-29T14:00:09;0.98;;;0.85;;
12425;SDS011;6277;49.824;9.562;2022-07-29T14:02:35;1.50;;;0.90;;
12425;SDS011;6277;49.824;9.562;2022-07-29T14:05:03;1.52;;;1.00;;
12425;SDS011;6277;49.824;9.562;2022-07-29T14:07:29;1.10;;;0.98;;
12425;SDS011;6277;49.824;9.562;2022-07-29T14:09:55;2.00;;;1.00;;
12425;SDS011;6277;49.824;9.562;2022-07-29T14:12:21;2.83;;;1.00;;
12425;SDS011;6277;49.824;9.562;2022-07-29T14:14:47;1.85;;;1.10;;
12425;SDS011;6277;49.824;9.562;2022-07-29T14:17:13;1.27;;;0.90;;
12425;SDS011;6277;49.824;9.562;2022-07-29T14:19:39;1.73;;;1.10;;
12425;SDS011;6277;49.824;9.562;2022-07-29T14:22:05;1.10;;;0.85;;
12425;SDS011;6277;49.824;9.562;2022-07-29T14:24:31;1.80;;;1.15;;
12425;SDS011;6277;49.824;9.562;2022-07-29T14:26:57;2.22;;;1.27;;
12425;SDS011;6277;49.824;9.562;2022-07-29T14:29:22;2.00;;;1.10;;
12425;SDS011;6277;49.824;9.562;2022-07-29T14:31:48;1.90;;;1.10;;
12425;SDS011;6277;49.824;9.562;2022-07-29T14:34:14;2.08;;;1.20;;
12425;SDS011;6277;49.824;9.562;2022-07-29T14:36:40;1.23;;;1.13;;
12425;SDS011;6277;49.824;9.562;2022-07-29T14:39:06;3.50;;;1.02;;
12425;SDS011;6277;49.824;9.562;2022-07-29T14:41:31;1.38;;;0.85;;
12425;SDS011;6277;49.824;9.562;2022-07-29T14:43:57;1.23;;;0.93;;
12425;SDS011;6277;49.824;9.562;2022-07-29T14:46:25;1.85;;;0.90;;
12425;SDS011;6277;49.824;9.562;2022-07-29T14:48:51;1.40;;;1.00;;
12425;SDS011;6277;49.824;9.562;2022-07-29T14:51:17;2.25;;;1.20;;
12425;SDS011;6277;49.824;9.562;2022-07-29T14:53:42;1.58;;;0.98;;
12425;SDS011;6277;49.824;9.562;2022-07-29T14:56:08;2.08;;;0.85;;
12425;SDS011;6277;49.824;9.562;2022-07-29T14:58:34;2.13;;;0.98;;
12425;SDS011;6277;49.824;9.562;2022-07-29T15:01:00;0.90;;;0.75;;
12425;SDS011;6277;49.824;9.562;2022-07-29T15:03:25;2.20;;;0.90;;
12425;SDS011;6277;49.824;9.562;2022-07-29T15:05:52;2.10;;;1.30;;
12425;SDS011;6277;49.824;9.562;2022-07-29T15:08:18;1.40;;;1.00;;
12425;SDS011;6277;49.824;9.562;2022-07-29T15:10:44;1.70;;;1.10;;
12425;SDS011;6277;49.824;9.562;2022-07-29T15:13:09;2.00;;;1.00;;
12425;SDS011;6277;49.824;9.562;2022-07-29T15:15:35;1.45;;;0.93;;
12425;SDS011;6277;49.824;9.562;2022-07-29T15:18:00;1.20;;;0.88;;
12425;SDS011;6277;49.824;9.562;2022-07-29T15:20:26;2.90;;;0.98;;
12425;SDS011;6277;49.824;9.562;2022-07-29T15:22:52;2.83;;;1.20;;
12425;SDS011;6277;49.824;9.562;2022-07-29T15:25:20;1.80;;;1.00;;
12425;SDS011;6277;49.824;9.562;2022-07-29T15:27:49;2.08;;;1.20;;
12425;SDS011;6277;49.824;9.562;2022-07-29T15:30:15;2.30;;;0.90;;
12425;SDS011;6277;49.824;9.562;2022-07-29T15:32:42;1.48;;;1.30;;
12425;SDS011;6277;49.824;9.562;2022-07-29T15:35:08;1.83;;;1.05;;
12425;SDS011;6277;49.824;9.562;2022-07-29T15:37:35;1.20;;;1.08;;
12425;SDS011;6277;49.824;9.562;2022-07-29T15:40:01;2.05;;;1.10;;
12425;SDS011;6277;49.824;9.562;2022-07-29T15:42:26;1.40;;;1.13;;
12425;SDS011;6277;49.824;9.562;2022-07-29T15:44:52;1.75;;;1.35;;
12425;SDS011;6277;49.824;9.562;2022-07-29T15:47:17;1.65;;;1.40;;
12425;SDS011;6277;49.824;9.562;2022-07-29T15:49:43;2.92;;;1.20;;
12425;SDS011;6277;49.824;9.562;2022-07-29T15:52:09;1.75;;;1.17;;
12425;SDS011;6277;49.824;9.562;2022-07-29T15:54:36;1.25;;;1.15;;
12425;SDS011;6277;49.824;9.562;2022-07-29T15:57:03;1.70;;;1.15;;